sensor_id;sensor_type;location;lat;lon;timestamp;pressure;altitude;pressure_sealevel;temperature;humidity
43071;BME280;36278;47.952;21.714;2022-07-06T00:01:53;100022.59;;;22.20;75.13
43071;BME280;36278;47.952;21.714;2022-07-06T00:04:19;100022.59;;;22.20;75.37
43071;BME280;36278;47.952;21.714;2022-07-06T00:06:45;100030.09;;;22.25;75.05
43071;BME280;36278;47.952;21.714;2022-07-06T00:09:11;100027.56;;;22.23;74.90
43071;BME280;36278;47.952;21.714;2022-07-06T00:11:37;100033.81;;;22.24;75.14
43071;BME280;36278;47.952;21.714;2022-07-06T00:14:03;100039.66;;;22.27;75.17
43071;BME280;36278;47.952;21.714;2022-07-06T00:16:29;100037.97;;;22.26;74.76
43071;BME280;36278;47.952;21.714;2022-07-06T00:18:55;100040.22;;;22.16;75.66
43071;BME280;36278;47.952;21.714;2022-07-06T00:21:20;100036.47;;;22.17;75.08
43071;BME280;36278;47.952;21.714;2022-07-06T00:23:46;100041.88;;;22.17;75.17
43071;BME280;36278;47.952;21.714;2022-07-06T00:26:13;100036.34;;;22.04;76.12
43071;BME280;36278;47.952;21.714;2022-07-06T00:28:38;100045.56;;;22.09;75.73
43071;BME280;36278;47.952;21.714;2022-07-06T00:31:03;100036.22;;;22.12;75.37
43071;BME280;36278;47.952;21.714;2022-07-06T00:33:31;100038.94;;;22.12;75.38
43071;BME280;36278;47.952;21.714;2022-07-06T00:35:57;100038.53;;;22.15;75.19
43071;BME280;36278;47.952;21.714;2022-07-06T00:38:22;100033.78;;;22.17;75.02
43071;BME280;36278;47.952;21.714;2022-07-06T00:40:48;100033.13;;;22.15;74.75
43071;BME280;36278;47.952;21.714;2022-07-06T00:43:14;100030.84;;;22.12;74.10
43071;BME280;36278;47.952;21.714;2022-07-06T00:45:39;100044.31;;;22.12;74.18
43071;BME280;36278;47.952;21.714;2022-07-06T00:48:05;100043.28;;;22.13;73.61
43071;BME280;36278;47.952;21.714;2022-07-06T00:50:30;100050.03;;;22.02;73.96
43071;BME280;36278;47.952;21.714;2022-07-06T00:53:03;100047.75;;;21.99;74.27
43071;BME280;36278;47.952;21.714;2022-07-06T00:55:30;100048.38;;;22.01;73.95
43071;BME280;36278;47.952;21.714;2022-07-06T00:57:56;100051.69;;;22.03;73.62
43071;BME280;36278;47.952;21.714;2022-07-06T01:00:24;100063.97;;;22.06;73.89
43071;BME280;36278;47.952;21.714;2022-07-06T01:02:50;100064.25;;;22.11;73.46
43071;BME280;36278;47.952;21.714;2022-07-06T01:05:17;100062.19;;;22.13;73.23
43071;BME280;36278;47.952;21.714;2022-07-06T01:07:44;100061.13;;;22.14;73.50
43071;BME280;36278;47.952;21.714;2022-07-06T01:10:11;100065.31;;;22.17;73.32
43071;BME280;36278;47.952;21.714;2022-07-06T01:12:39;100068.03;;;22.17;73.21
43071;BME280;36278;47.952;21.714;2022-07-06T01:15:07;100067.63;;;22.20;73.14
43071;BME280;36278;47.952;21.714;2022-07-06T01:17:34;100065.50;;;22.15;73.19
43071;BME280;36278;47.952;21.714;2022-07-06T01:22:41;100072.53;;;22.09;73.41
43071;BME280;36278;47.952;21.714;2022-07-06T01:25:07;100067.69;;;22.05;73.76
43071;BME280;36278;47.952;21.714;2022-07-06T01:27:34;100072.44;;;22.03;73.64
43071;BME280;36278;47.952;21.714;2022-07-06T01:30:07;100071.22;;;22.05;73.82
43071;BME280;36278;47.952;21.714;2022-07-06T01:32:34;100081.47;;;22.10;73.54
43071;BME280;36278;47.952;21.714;2022-07-06T01:35:00;100075.25;;;22.09;73.46
43071;BME280;36278;47.952;21.714;2022-07-06T01:37:25;100077.09;;;22.09;73.58
43071;BME280;36278;47.952;21.714;2022-07-06T01:39:51;100069.97;;;22.01;73.87
43071;BME280;36278;47.952;21.714;2022-07-06T01:42:16;100075.09;;;21.96;74.12
43071;BME280;36278;47.952;21.714;2022-07-06T01:44:43;100067.00;;;21.96;74.08
43071;BME280;36278;47.952;21.714;2022-07-06T01:47:09;100080.50;;;21.96;74.29
43071;BME280;36278;47.952;21.714;2022-07-06T01:49:35;100080.06;;;21.93;74.61
43071;BME280;36278;47.952;21.714;2022-07-06T01:52:00;100068.81;;;21.89;74.56
43071;BME280;36278;47.952;21.714;2022-07-06T01:54:26;100065.44;;;21.80;74.89
43071;BME280;36278;47.952;21.714;2022-07-06T01:56:51;100074.53;;;21.79;75.37
43071;BME280;36278;47.952;21.714;2022-07-06T01:59:16;100073.50;;;21.80;75.31
43071;BME280;36278;47.952;21.714;2022-07-06T02:01:42;100078.72;;;21.82;75.88
43071;BME280;36278;47.952;21.714;2022-07-06T02:04:07;100070.72;;;21.67;76.43
43071;BME280;36278;47.952;21.714;2022-07-06T02:06:33;100074.75;;;21.57;77.44
43071;BME280;36278;47.952;21.714;2022-07-06T02:08:58;100072.91;;;21.36;78.87
43071;BME280;36278;47.952;21.714;2022-07-06T02:11:23;100073.38;;;21.24;79.48
43071;BME280;36278;47.952;21.714;2022-07-06T02:13:49;100076.25;;;21.38;78.98
43071;BME280;36278;47.952;21.714;2022-07-06T02:16:14;100072.13;;;21.42;78.86
43071;BME280;36278;47.952;21.714;2022-07-06T02:18:40;100075.47;;;21.44;79.17
43071;BME280;36278;47.952;21.714;2022-07-06T02:21:05;100084.88;;;21.33;79.84
43071;BME280;36278;47.952;21.714;2022-07-06T02:23:31;100081.56;;;21.16;80.49
43071;BME280;36278;47.952;21.714;2022-07-06T02:25:56;100082.88;;;21.20;80.90
43071;BME280;36278;47.952;21.714;2022-07-06T02:28:22;100081.94;;;21.28;80.36
43071;BME280;36278;47.952;21.714;2022-07-06T02:30:47;100077.91;;;21.24;80.26
43071;BME280;36278;47.952;21.714;2022-07-06T02:33:12;100086.44;;;21.06;81.54
43071;BME280;36278;47.952;21.714;2022-07-06T02:35:39;100079.59;;;20.89;82.73
43071;BME280;36278;47.952;21.714;2022-07-06T02:38:10;100086.56;;;20.83;83.07
43071;BME280;36278;47.952;21.714;2022-07-06T02:40:36;100079.81;;;20.87;83.15
43071;BME280;36278;47.952;21.714;2022-07-06T02:43:02;100087.50;;;20.76;83.91
43071;BME280;36278;47.952;21.714;2022-07-06T02:45:27;100088.31;;;20.91;83.29
43071;BME280;36278;47.952;21.714;2022-07-06T02:47:53;100087.19;;;21.00;82.57
43071;BME280;36278;47.952;21.714;2022-07-06T02:50:20;100088.09;;;21.07;82.31
43071;BME280;36278;47.952;21.714;2022-07-06T02:52:46;100092.09;;;21.11;82.06
43071;BME280;36278;47.952;21.714;2022-07-06T02:55:11;100097.28;;;21.13;81.73
43071;BME280;36278;47.952;21.714;2022-07-06T02:57:36;100100.25;;;21.18;81.67
43071;BME280;36278;47.952;21.714;2022-07-06T03:00:03;100104.44;;;21.20;81.36
43071;BME280;36278;47.952;21.714;2022-07-06T03:02:29;100101.72;;;21.20;81.52
43071;BME280;36278;47.952;21.714;2022-07-06T03:04:54;100108.97;;;21.20;81.08
43071;BME280;36278;47.952;21.714;2022-07-06T03:07:19;100100.59;;;20.93;82.63
43071;BME280;36278;47.952;21.714;2022-07-06T03:09:45;100096.50;;;20.83;83.57
43071;BME280;36278;47.952;21.714;2022-07-06T03:12:10;100104.53;;;20.61;85.05
43071;BME280;36278;47.952;21.714;2022-07-06T03:14:36;100110.34;;;20.50;85.86
43071;BME280;36278;47.952;21.714;2022-07-06T03:17:02;100103.59;;;20.54;85.56
43071;BME280;36278;47.952;21.714;2022-07-06T03:19:27;100119.31;;;20.42;86.35
43071;BME280;36278;47.952;21.714;2022-07-06T03:21:53;100118.72;;;20.55;85.65
43071;BME280;36278;47.952;21.714;2022-07-06T03:24:18;100114.63;;;20.74;84.71
43071;BME280;36278;47.952;21.714;2022-07-06T03:26:44;100112.84;;;20.81;84.06
43071;BME280;36278;47.952;21.714;2022-07-06T03:29:09;100125.13;;;20.54;86.02
43071;BME280;36278;47.952;21.714;2022-07-06T03:31:35;100116.03;;;20.55;85.79
43071;BME280;36278;47.952;21.714;2022-07-06T03:34:00;100116.13;;;20.47;86.16
43071;BME280;36278;47.952;21.714;2022-07-06T03:36:26;100124.19;;;20.47;86.69
43071;BME280;36278;47.952;21.714;2022-07-06T03:38:51;100119.06;;;20.52;86.35
43071;BME280;36278;47.952;21.714;2022-07-06T03:41:17;100109.63;;;20.56;85.91
43071;BME280;36278;47.952;21.714;2022-07-06T03:43:42;100105.53;;;20.60;85.71
43071;BME280;36278;47.952;21.714;2022-07-06T03:46:08;100113.06;;;20.65;85.62
43071;BME280;36278;47.952;21.714;2022-07-06T03:48:34;100112.84;;;20.66;85.29
43071;BME280;36278;47.952;21.714;2022-07-06T03:50:59;100106.94;;;20.71;85.29
43071;BME280;36278;47.952;21.714;2022-07-06T03:53:25;100109.81;;;20.69;84.94
43071;BME280;36278;47.952;21.714;2022-07-06T03:55:50;100115.84;;;20.71;85.22
43071;BME280;36278;47.952;21.714;2022-07-06T03:58:34;100120.56;;;20.69;85.26
43071;BME280;36278;47.952;21.714;2022-07-06T04:01:00;100117.69;;;20.71;84.82
43071;BME280;36278;47.952;21.714;2022-07-06T04:03:25;100115.25;;;20.76;84.73
43071;BME280;36278;47.952;21.714;2022-07-06T04:05:51;100125.38;;;20.74;85.21
43071;BME280;36278;47.952;21.714;2022-07-06T04:08:16;100140.91;;;20.72;85.28
43071;BME280;36278;47.952;21.714;2022-07-06T04:10:41;100144.81;;;20.69;85.14
43071;BME280;36278;47.952;21.714;2022-07-06T04:13:07;100140.69;;;20.74;84.50
43071;BME280;36278;47.952;21.714;2022-07-06T04:15:32;100152.41;;;20.81;84.79
43071;BME280;36278;47.952;21.714;2022-07-06T04:17:58;100145.59;;;20.85;84.41
43071;BME280;36278;47.952;21.714;2022-07-06T04:20:24;100149.41;;;20.90;83.76
43071;BME280;36278;47.952;21.714;2022-07-06T04:22:51;100147.56;;;20.91;83.85
43071;BME280;36278;47.952;21.714;2022-07-06T04:25:17;100153.13;;;20.89;84.08
43071;BME280;36278;47.952;21.714;2022-07-06T04:27:43;100153.13;;;20.89;84.01
43071;BME280;36278;47.952;21.714;2022-07-06T04:30:09;100147.75;;;20.89;84.19
43071;BME280;36278;47.952;21.714;2022-07-06T04:32:35;100149.41;;;20.90;83.87
43071;BME280;36278;47.952;21.714;2022-07-06T04:35:01;100147.56;;;20.91;84.07
43071;BME280;36278;47.952;21.714;2022-07-06T04:37:27;100156.13;;;20.94;84.19
43071;BME280;36278;47.952;21.714;2022-07-06T04:39:52;100156.75;;;20.96;83.90
43071;BME280;36278;47.952;21.714;2022-07-06T04:42:18;100154.72;;;20.98;83.72
43071;BME280;36278;47.952;21.714;2022-07-06T04:44:44;100157.28;;;21.07;83.46
43071;BME280;36278;47.952;21.714;2022-07-06T04:47:11;100162.97;;;21.12;83.55
43071;BME280;36278;47.952;21.714;2022-07-06T04:49:37;100160.28;;;21.12;83.76
43071;BME280;36278;47.952;21.714;2022-07-06T04:52:03;100166.38;;;21.20;83.36
43071;BME280;36278;47.952;21.714;2022-07-06T04:54:29;100170.75;;;21.21;82.92
43071;BME280;36278;47.952;21.714;2022-07-06T04:56:54;100172.22;;;21.24;83.05
43071;BME280;36278;47.952;21.714;2022-07-06T04:59:20;100172.13;;;21.17;82.21
43071;BME280;36278;47.952;21.714;2022-07-06T05:01:45;100181.72;;;21.20;83.41
43071;BME280;36278;47.952;21.714;2022-07-06T05:04:11;100192.13;;;21.08;84.67
43071;BME280;36278;47.952;21.714;2022-07-06T05:06:36;100200.19;;;21.08;86.09
43071;BME280;36278;47.952;21.714;2022-07-06T05:09:02;100192.41;;;20.98;84.78
43071;BME280;36278;47.952;21.714;2022-07-06T05:11:28;100195.00;;;21.07;84.61
43071;BME280;36278;47.952;21.714;2022-07-06T05:13:53;100203.91;;;21.07;85.31
43071;BME280;36278;47.952;21.714;2022-07-06T05:16:20;100207.34;;;21.16;85.54
43071;BME280;36278;47.952;21.714;2022-07-06T05:18:46;100200.28;;;21.15;85.54
43071;BME280;36278;47.952;21.714;2022-07-06T05:21:11;100207.34;;;21.16;84.05
43071;BME280;36278;47.952;21.714;2022-07-06T05:23:37;100206.31;;;21.17;83.84
43071;BME280;36278;47.952;21.714;2022-07-06T05:26:02;100211.06;;;21.15;84.17
43071;BME280;36278;47.952;21.714;2022-07-06T05:28:28;100224.00;;;21.19;85.03
43071;BME280;36278;47.952;21.714;2022-07-06T05:30:53;100227.22;;;21.15;84.31
43071;BME280;36278;47.952;21.714;2022-07-06T05:33:19;100229.66;;;21.10;85.18
43071;BME280;36278;47.952;21.714;2022-07-06T05:35:44;100223.16;;;21.04;84.59
43071;BME280;36278;47.952;21.714;2022-07-06T05:38:10;100229.19;;;21.06;85.81
43071;BME280;36278;47.952;21.714;2022-07-06T05:40:36;100231.25;;;21.04;84.92
43071;BME280;36278;47.952;21.714;2022-07-06T05:43:01;100225.84;;;21.04;86.88
43071;BME280;36278;47.952;21.714;2022-07-06T05:45:27;100227.50;;;21.05;85.62
43071;BME280;36278;47.952;21.714;2022-07-06T05:47:52;100220.06;;;20.92;84.24
43071;BME280;36278;47.952;21.714;2022-07-06T05:50:36;100217.97;;;20.88;84.86
43071;BME280;36278;47.952;21.714;2022-07-06T05:53:04;100229.28;;;20.98;84.53
43071;BME280;36278;47.952;21.714;2022-07-06T05:55:31;100232.44;;;20.87;83.75
43071;BME280;36278;47.952;21.714;2022-07-06T05:57:56;100232.16;;;20.82;82.56
43071;BME280;36278;47.952;21.714;2022-07-06T06:00:23;100230.28;;;20.82;82.81
43071;BME280;36278;47.952;21.714;2022-07-06T06:02:50;100226.75;;;20.82;85.03
43071;BME280;36278;47.952;21.714;2022-07-06T06:05:16;100228.16;;;20.78;82.88
43071;BME280;36278;47.952;21.714;2022-07-06T06:07:43;100228.81;;;20.80;83.48
43071;BME280;36278;47.952;21.714;2022-07-06T06:10:11;100232.34;;;20.80;83.78
43071;BME280;36278;47.952;21.714;2022-07-06T06:12:38;100230.59;;;20.87;84.01
43071;BME280;36278;47.952;21.714;2022-07-06T06:15:04;100226.28;;;20.93;83.73
43071;BME280;36278;47.952;21.714;2022-07-06T06:17:31;100239.03;;;20.99;80.68
43071;BME280;36278;47.952;21.714;2022-07-06T06:19:57;100233.00;;;20.97;80.76
43071;BME280;36278;47.952;21.714;2022-07-06T06:22:23;100236.97;;;21.01;80.88
43071;BME280;36278;47.952;21.714;2022-07-06T06:24:49;100234.66;;;21.13;80.71
43071;BME280;36278;47.952;21.714;2022-07-06T06:27:15;100238.19;;;21.13;79.19
43071;BME280;36278;47.952;21.714;2022-07-06T06:29:41;100231.97;;;20.98;78.49
43071;BME280;36278;47.952;21.714;2022-07-06T06:32:07;100236.72;;;21.11;78.46
43071;BME280;36278;47.952;21.714;2022-07-06T06:34:33;100245.06;;;21.01;78.61
43071;BME280;36278;47.952;21.714;2022-07-06T06:36:58;100242.00;;;21.04;77.53
43071;BME280;36278;47.952;21.714;2022-07-06T06:39:24;100236.03;;;21.09;78.52
43071;BME280;36278;47.952;21.714;2022-07-06T06:41:49;100245.53;;;21.19;76.70
43071;BME280;36278;47.952;21.714;2022-07-06T06:44:15;100235.94;;;21.17;77.05
43071;BME280;36278;47.952;21.714;2022-07-06T06:46:41;100245.25;;;21.14;78.65
43071;BME280;36278;47.952;21.714;2022-07-06T06:49:07;100252.03;;;21.10;75.15
43071;BME280;36278;47.952;21.714;2022-07-06T06:51:33;100250.72;;;21.06;75.58
43071;BME280;36278;47.952;21.714;2022-07-06T06:53:58;100250.81;;;20.98;75.85
43071;BME280;36278;47.952;21.714;2022-07-06T06:56:24;100258.91;;;20.98;77.78
43071;BME280;36278;47.952;21.714;2022-07-06T06:58:49;100256.13;;;21.06;75.81
43071;BME280;36278;47.952;21.714;2022-07-06T07:01:15;100251.75;;;21.05;76.63
43071;BME280;36278;47.952;21.714;2022-07-06T07:03:40;100253.03;;;21.09;76.11
43071;BME280;36278;47.952;21.714;2022-07-06T07:06:06;100262.72;;;21.04;75.98
43071;BME280;36278;47.952;21.714;2022-07-06T07:08:32;100255.00;;;21.00;75.79
43071;BME280;36278;47.952;21.714;2022-07-06T07:10:58;100266.34;;;21.11;76.26
43071;BME280;36278;47.952;21.714;2022-07-06T07:13:23;100263.47;;;21.12;75.69
43071;BME280;36278;47.952;21.714;2022-07-06T07:15:49;100261.59;;;21.13;75.50
43071;BME280;36278;47.952;21.714;2022-07-06T07:18:14;100271.63;;;21.04;75.29
43071;BME280;36278;47.952;21.714;2022-07-06T07:20:40;100266.25;;;21.04;75.34
43071;BME280;36278;47.952;21.714;2022-07-06T07:23:05;100262.97;;;21.09;74.96
43071;BME280;36278;47.952;21.714;2022-07-06T07:25:31;100260.28;;;21.09;75.41
43071;BME280;36278;47.952;21.714;2022-07-06T07:27:57;100281.38;;;21.05;75.26
43071;BME280;36278;47.952;21.714;2022-07-06T07:30:22;100279.72;;;21.04;75.23
43071;BME280;36278;47.952;21.714;2022-07-06T07:32:48;100282.94;;;20.99;75.32
43071;BME280;36278;47.952;21.714;2022-07-06T07:35:14;100284.28;;;21.04;75.46
43071;BME280;36278;47.952;21.714;2022-07-06T07:37:39;100282.66;;;21.09;74.68
43071;BME280;36278;47.952;21.714;2022-07-06T07:40:05;100277.69;;;21.21;74.19
43071;BME280;36278;47.952;21.714;2022-07-06T07:42:32;100289.22;;;21.30;74.47
43071;BME280;36278;47.952;21.714;2022-07-06T07:44:58;100286.16;;;21.33;72.11
43071;BME280;36278;47.952;21.714;2022-07-06T07:47:23;100287.88;;;21.25;71.74
43071;BME280;36278;47.952;21.714;2022-07-06T07:49:48;100286.72;;;21.43;71.11
43071;BME280;36278;47.952;21.714;2022-07-06T07:52:16;100280.94;;;21.46;71.61
43071;BME280;36278;47.952;21.714;2022-07-06T07:54:42;100291.00;;;21.37;70.45
43071;BME280;36278;47.952;21.714;2022-07-06T07:57:08;100287.63;;;21.50;70.70
43071;BME280;36278;47.952;21.714;2022-07-06T07:59:33;100294.31;;;21.54;70.95
43071;BME280;36278;47.952;21.714;2022-07-06T08:01:59;100290.59;;;21.40;71.26
43071;BME280;36278;47.952;21.714;2022-07-06T08:04:25;100290.16;;;21.37;71.85
43071;BME280;36278;47.952;21.714;2022-07-06T08:06:51;100288.00;;;21.32;71.36
43071;BME280;36278;47.952;21.714;2022-07-06T08:09:17;100291.09;;;21.29;72.16
43071;BME280;36278;47.952;21.714;2022-07-06T08:11:43;100298.47;;;21.12;71.27
43071;BME280;36278;47.952;21.714;2022-07-06T08:14:09;100296.13;;;21.09;72.43
43071;BME280;36278;47.952;21.714;2022-07-06T08:16:35;100299.59;;;21.03;72.64
43071;BME280;36278;47.952;21.714;2022-07-06T08:19:01;100307.69;;;21.03;74.06
43071;BME280;36278;47.952;21.714;2022-07-06T08:21:26;100305.66;;;21.20;74.44
43071;BME280;36278;47.952;21.714;2022-07-06T08:23:53;100315.56;;;21.05;76.65
43071;BME280;36278;47.952;21.714;2022-07-06T08:26:19;100313.50;;;20.77;76.46
43071;BME280;36278;47.952;21.714;2022-07-06T08:28:46;100316.75;;;20.87;81.33
43071;BME280;36278;47.952;21.714;2022-07-06T08:31:14;100318.94;;;20.84;82.01
43071;BME280;36278;47.952;21.714;2022-07-06T08:33:40;100326.47;;;20.74;78.11
43071;BME280;36278;47.952;21.714;2022-07-06T08:36:06;100331.84;;;20.74;79.75
43071;BME280;36278;47.952;21.714;2022-07-06T08:38:31;100325.47;;;20.89;79.08
43071;BME280;36278;47.952;21.714;2022-07-06T08:40:58;100338.41;;;21.09;78.24
43071;BME280;36278;47.952;21.714;2022-07-06T08:43:25;100329.00;;;21.27;76.78
43071;BME280;36278;47.952;21.714;2022-07-06T08:45:53;100325.28;;;21.43;76.89
43071;BME280;36278;47.952;21.714;2022-07-06T08:48:19;100332.59;;;21.49;75.87
43071;BME280;36278;47.952;21.714;2022-07-06T08:50:47;100339.75;;;21.57;77.27
43071;BME280;36278;47.952;21.714;2022-07-06T08:53:16;100341.91;;;21.62;75.44
43071;BME280;36278;47.952;21.714;2022-07-06T08:55:42;100342.63;;;21.41;74.18
43071;BME280;36278;47.952;21.714;2022-07-06T08:58:08;100347.41;;;21.53;75.03
43071;BME280;36278;47.952;21.714;2022-07-06T09:00:34;100337.91;;;21.58;73.62
43071;BME280;36278;47.952;21.714;2022-07-06T09:03:00;100334.00;;;21.60;73.00
43071;BME280;36278;47.952;21.714;2022-07-06T09:05:27;100341.81;;;21.70;73.12
43071;BME280;36278;47.952;21.714;2022-07-06T09:07:55;100335.00;;;21.74;73.59
43071;BME280;36278;47.952;21.714;2022-07-06T09:10:22;100324.66;;;21.92;72.06
43071;BME280;36278;47.952;21.714;2022-07-06T09:12:48;100340.47;;;22.10;72.77
43071;BME280;36278;47.952;21.714;2022-07-06T09:15:14;100339.50;;;22.18;70.56
43071;BME280;36278;47.952;21.714;2022-07-06T09:17:42;100357.16;;;22.05;70.93
43071;BME280;36278;47.952;21.714;2022-07-06T09:20:09;100338.47;;;22.04;71.40
43071;BME280;36278;47.952;21.714;2022-07-06T09:22:36;100356.25;;;21.98;69.49
43071;BME280;36278;47.952;21.714;2022-07-06T09:25:10;100355.31;;;22.06;69.24
43071;BME280;36278;47.952;21.714;2022-07-06T09:27:45;100357.75;;;22.16;68.68
43071;BME280;36278;47.952;21.714;2022-07-06T09:30:14;100342.66;;;22.21;67.45
43071;BME280;36278;47.952;21.714;2022-07-06T09:32:45;100359.56;;;22.30;67.75
43071;BME280;36278;47.952;21.714;2022-07-06T09:35:21;100356.09;;;22.36;65.92
43071;BME280;36278;47.952;21.714;2022-07-06T09:37:47;100352.63;;;22.63;65.11
43071;BME280;36278;47.952;21.714;2022-07-06T09:40:22;100339.34;;;23.11;64.85
43071;BME280;36278;47.952;21.714;2022-07-06T09:42:48;100343.84;;;23.32;63.89
43071;BME280;36278;47.952;21.714;2022-07-06T09:45:20;100359.28;;;23.38;61.06
43071;BME280;36278;47.952;21.714;2022-07-06T09:47:47;100372.91;;;23.24;60.56
43071;BME280;36278;47.952;21.714;2022-07-06T09:50:16;100365.47;;;23.32;59.80
43071;BME280;36278;47.952;21.714;2022-07-06T09:52:53;100368.06;;;23.19;59.99
43071;BME280;36278;47.952;21.714;2022-07-06T09:55:21;100357.41;;;23.11;59.89
43071;BME280;36278;47.952;21.714;2022-07-06T09:57:53;100363.72;;;23.18;60.06
43071;BME280;36278;47.952;21.714;2022-07-06T10:00:20;100358.16;;;23.26;60.20
43071;BME280;36278;47.952;21.714;2022-07-06T10:02:47;100372.09;;;23.02;59.39
43071;BME280;36278;47.952;21.714;2022-07-06T10:05:16;100361.34;;;23.08;59.52
43071;BME280;36278;47.952;21.714;2022-07-06T10:07:45;100369.09;;;23.18;59.76
43071;BME280;36278;47.952;21.714;2022-07-06T10:10:11;100368.09;;;23.54;59.49
43071;BME280;36278;47.952;21.714;2022-07-06T10:12:37;100370.06;;;23.66;57.56
43071;BME280;36278;47.952;21.714;2022-07-06T10:15:06;100371.56;;;23.75;57.35
43071;BME280;36278;47.952;21.714;2022-07-06T10:17:32;100369.13;;;23.53;57.70
43071;BME280;36278;47.952;21.714;2022-07-06T10:19:58;100386.91;;;23.34;59.51
43071;BME280;36278;47.952;21.714;2022-07-06T10:22:24;100378.81;;;23.12;58.10
43071;BME280;36278;47.952;21.714;2022-07-06T10:24:50;100368.94;;;23.54;57.47
43071;BME280;36278;47.952;21.714;2022-07-06T10:27:17;100382.34;;;23.69;57.55
43071;BME280;36278;47.952;21.714;2022-07-06T10:29:43;100367.16;;;23.68;56.40
43071;BME280;36278;47.952;21.714;2022-07-06T10:32:09;100374.22;;;24.17;56.35
43071;BME280;36278;47.952;21.714;2022-07-06T10:34:35;100377.94;;;24.83;54.68
43071;BME280;36278;47.952;21.714;2022-07-06T10:37:02;100364.00;;;25.13;52.77
43071;BME280;36278;47.952;21.714;2022-07-06T10:39:36;100362.56;;;25.10;53.37
43071;BME280;36278;47.952;21.714;2022-07-06T10:45:08;100358.75;;;25.38;52.97
43071;BME280;36278;47.952;21.714;2022-07-06T10:47:35;100373.06;;;25.78;52.45
43071;BME280;36278;47.952;21.714;2022-07-06T10:50:03;100358.63;;;25.91;51.90
43071;BME280;36278;47.952;21.714;2022-07-06T10:55:40;100378.03;;;25.88;50.72
43071;BME280;36278;47.952;21.714;2022-07-06T10:58:06;100349.81;;;25.95;50.13
43071;BME280;36278;47.952;21.714;2022-07-06T11:01:01;100364.81;;;26.05;50.35
43071;BME280;36278;47.952;21.714;2022-07-06T11:14:02;100362.13;;;26.36;48.26
43071;BME280;36278;47.952;21.714;2022-07-06T11:16:32;100366.97;;;26.41;48.45
43071;BME280;36278;47.952;21.714;2022-07-06T11:19:05;100365.31;;;26.40;48.85
43071;BME280;36278;47.952;21.714;2022-07-06T11:24:16;100355.47;;;26.95;46.80
43071;BME280;36278;47.952;21.714;2022-07-06T11:26:44;100348.41;;;27.37;47.04
43071;BME280;36278;47.952;21.714;2022-07-06T11:29:12;100352.56;;;27.22;44.35
43071;BME280;36278;47.952;21.714;2022-07-06T11:31:40;100369.06;;;27.45;44.53
43071;BME280;36278;47.952;21.714;2022-07-06T11:34:07;100347.53;;;27.80;43.55
43071;BME280;36278;47.952;21.714;2022-07-06T11:36:33;100349.56;;;28.33;43.35
43071;BME280;36278;47.952;21.714;2022-07-06T11:38:59;100350.84;;;27.82;43.72
43071;BME280;36278;47.952;21.714;2022-07-06T11:41:24;100359.72;;;27.78;43.66
43071;BME280;36278;47.952;21.714;2022-07-06T11:43:50;100343.69;;;28.36;43.26
43071;BME280;36278;47.952;21.714;2022-07-06T11:46:32;100348.75;;;28.33;43.25
43071;BME280;36278;47.952;21.714;2022-07-06T11:49:04;100349.41;;;28.58;42.29
43071;BME280;36278;47.952;21.714;2022-07-06T11:51:32;100343.59;;;29.08;41.63
43071;BME280;36278;47.952;21.714;2022-07-06T11:54:00;100350.34;;;29.52;40.30
43071;BME280;36278;47.952;21.714;2022-07-06T11:56:29;100350.75;;;29.73;40.02
43071;BME280;36278;47.952;21.714;2022-07-06T11:58:57;100344.16;;;30.09;39.22
43071;BME280;36278;47.952;21.714;2022-07-06T12:01:25;100342.56;;;30.25;38.96
43071;BME280;36278;47.952;21.714;2022-07-06T12:03:52;100350.75;;;30.25;38.24
43071;BME280;36278;47.952;21.714;2022-07-06T12:06:24;100354.59;;;29.37;39.67
43071;BME280;36278;47.952;21.714;2022-07-06T12:08:51;100351.63;;;29.38;40.38
43071;BME280;36278;47.952;21.714;2022-07-06T12:13:48;100340.47;;;29.75;39.97
43071;BME280;36278;47.952;21.714;2022-07-06T12:16:15;100341.88;;;30.18;38.94
43071;BME280;36278;47.952;21.714;2022-07-06T12:18:45;100338.09;;;29.55;40.44
43071;BME280;36278;47.952;21.714;2022-07-06T12:21:17;100339.06;;;28.48;41.51
43071;BME280;36278;47.952;21.714;2022-07-06T12:23:46;100336.13;;;28.20;42.41
43071;BME280;36278;47.952;21.714;2022-07-06T12:26:16;100335.00;;;28.09;42.97
43071;BME280;36278;47.952;21.714;2022-07-06T12:28:43;100338.91;;;27.83;44.21
43071;BME280;36278;47.952;21.714;2022-07-06T12:31:09;100331.69;;;27.34;44.56
43071;BME280;36278;47.952;21.714;2022-07-06T12:33:35;100333.91;;;26.75;44.40
43071;BME280;36278;47.952;21.714;2022-07-06T12:36:14;100328.03;;;27.03;44.96
43071;BME280;36278;47.952;21.714;2022-07-06T12:38:47;100326.78;;;26.99;43.47
43071;BME280;36278;47.952;21.714;2022-07-06T12:41:33;100319.25;;;26.76;45.21
43071;BME280;36278;47.952;21.714;2022-07-06T12:44:09;100320.16;;;27.38;43.42
43071;BME280;36278;47.952;21.714;2022-07-06T12:46:39;100330.28;;;27.50;43.54
43071;BME280;36278;47.952;21.714;2022-07-06T12:51:54;100339.72;;;27.29;42.45
43071;BME280;36278;47.952;21.714;2022-07-06T12:54:20;100325.66;;;27.50;41.78
43071;BME280;36278;47.952;21.714;2022-07-06T12:59:31;100327.53;;;28.05;40.15
43071;BME280;36278;47.952;21.714;2022-07-06T13:01:57;100333.88;;;27.99;40.37
43071;BME280;36278;47.952;21.714;2022-07-06T13:04:27;100345.50;;;27.76;40.91
43071;BME280;36278;47.952;21.714;2022-07-06T13:06:53;100331.00;;;28.12;40.14
43071;BME280;36278;47.952;21.714;2022-07-06T13:09:20;100347.53;;;27.80;40.46